sensor_id;sensor_type;location;lat;lon;timestamp;temperature;humidity
6696;DHT22;3385;48.928;10.330;2023-08-07T00:03:55;10.00;99.90
6696;DHT22;3385;48.928;10.330;2023-08-07T00:08:47;10.20;99.90
6696;DHT22;3385;48.928;10.330;2023-08-07T00:13:39;10.20;99.90
6696;DHT22;3385;48.928;10.330;2023-08-07T00:16:05;10.10;99.90
6696;DHT22;3385;48.928;10.330;2023-08-07T00:18:31;10.10;99.90
6696;DHT22;3385;48.928;10.330;2023-08-07T00:20:56;9.80;99.90
6696;DHT22;3385;48.928;10.330;2023-08-07T00:23:22;10.10;99.90
6696;DHT22;3385;48.928;10.330;2023-08-07T00:25:48;10.20;99.90
6696;DHT22;3385;48.928;10.330;2023-08-07T00:28:14;10.10;99.90
6696;DHT22;3385;48.928;10.330;2023-08-07T00:30:40;10.00;99.90
6696;DHT22;3385;48.928;10.330;2023-08-07T00:33:05;10.10;99.90
6696;DHT22;3385;48.928;10.330;2023-08-07T00:35:31;9.70;99.90
6696;DHT22;3385;48.928;10.330;2023-08-07T00:37:57;10.00;99.90
6696;DHT22;3385;48.928;10.330;2023-08-07T00:45:15;10.10;99.90
6696;DHT22;3385;48.928;10.330;2023-08-07T00:50:07;9.90;99.90
6696;DHT22;3385;48.928;10.330;2023-08-07T00:52:33;10.20;99.90
6696;DHT22;3385;48.928;10.330;2023-08-07T00:59:52;9.90;99.90
6696;DHT22;3385;48.928;10.330;2023-08-07T01:02:18;10.10;99.90
6696;DHT22;3385;48.928;10.330;2023-08-07T01:04:44;10.00;99.90
6696;DHT22;3385;48.928;10.330;2023-08-07T01:09:36;9.90;99.90
6696;DHT22;3385;48.928;10.330;2023-08-07T01:14:37;9.80;99.90
6696;DHT22;3385;48.928;10.330;2023-08-07T01:17:15;9.90;99.90
6696;DHT22;3385;48.928;10.330;2023-08-07T01:19:42;10.30;99.90
6696;DHT22;3385;48.928;10.330;2023-08-07T01:24:39;10.00;99.90
6696;DHT22;3385;48.928;10.330;2023-08-07T01:29:51;9.80;99.90
6696;DHT22;3385;48.928;10.330;2023-08-07T01:32:44;10.20;99.90
6696;DHT22;3385;48.928;10.330;2023-08-07T01:47:24;9.90;99.90
6696;DHT22;3385;48.928;10.330;2023-08-07T01:57:09;10.00;99.90
6696;DHT22;3385;48.928;10.330;2023-08-07T01:59:35;10.00;99.90
6696;DHT22;3385;48.928;10.330;2023-08-07T02:02:01;10.10;99.90
6696;DHT22;3385;48.928;10.330;2023-08-07T02:09:18;9.80;99.90
6696;DHT22;3385;48.928;10.330;2023-08-07T02:11:46;10.20;99.90
6696;DHT22;3385;48.928;10.330;2023-08-07T02:14:12;9.70;99.90
6696;DHT22;3385;48.928;10.330;2023-08-07T02:19:04;9.70;99.90
6696;DHT22;3385;48.928;10.330;2023-08-07T02:23:55;9.80;99.90
6696;DHT22;3385;48.928;10.330;2023-08-07T02:26:21;9.40;99.90
6696;DHT22;3385;48.928;10.330;2023-08-07T02:31:13;9.90;99.90
6696;DHT22;3385;48.928;10.330;2023-08-07T02:36:06;9.50;99.90
6696;DHT22;3385;48.928;10.330;2023-08-07T02:38:32;9.60;99.90
6696;DHT22;3385;48.928;10.330;2023-08-07T02:43:24;9.70;99.90
6696;DHT22;3385;48.928;10.330;2023-08-07T02:45:51;9.70;99.90
6696;DHT22;3385;48.928;10.330;2023-08-07T02:48:17;9.60;99.90
6696;DHT22;3385;48.928;10.330;2023-08-07T02:50:43;9.80;99.90
6696;DHT22;3385;48.928;10.330;2023-08-07T02:53:09;9.60;99.90
6696;DHT22;3385;48.928;10.330;2023-08-07T02:55:35;9.80;99.90
6696;DHT22;3385;48.928;10.330;2023-08-07T02:58:01;9.80;99.90
6696;DHT22;3385;48.928;10.330;2023-08-07T03:00:26;9.80;99.90
6696;DHT22;3385;48.928;10.330;2023-08-07T03:02:53;9.60;99.90
6696;DHT22;3385;48.928;10.330;2023-08-07T03:10:11;9.70;99.90
6696;DHT22;3385;48.928;10.330;2023-08-07T03:22:23;9.50;99.90
6696;DHT22;3385;48.928;10.330;2023-08-07T03:29:41;9.60;99.90
6696;DHT22;3385;48.928;10.330;2023-08-07T03:36:59;9.40;99.90
6696;DHT22;3385;48.928;10.330;2023-08-07T03:39:25;9.50;99.90
6696;DHT22;3385;48.928;10.330;2023-08-07T03:44:16;9.50;99.90
6696;DHT22;3385;48.928;10.330;2023-08-07T03:46:42;9.60;99.90
6696;DHT22;3385;48.928;10.330;2023-08-07T03:49:08;9.10;99.90
6696;DHT22;3385;48.928;10.330;2023-08-07T04:01:18;9.30;99.90
6696;DHT22;3385;48.928;10.330;2023-08-07T04:03:46;9.20;99.90
6696;DHT22;3385;48.928;10.330;2023-08-07T04:11:07;9.50;99.90
6696;DHT22;3385;48.928;10.330;2023-08-07T04:18:29;9.30;99.90
6696;DHT22;3385;48.928;10.330;2023-08-07T04:25:48;9.40;99.90
6696;DHT22;3385;48.928;10.330;2023-08-07T04:28:14;9.20;99.90
6696;DHT22;3385;48.928;10.330;2023-08-07T04:30:41;9.40;99.90
6696;DHT22;3385;48.928;10.330;2023-08-07T04:35:33;9.40;99.90
6696;DHT22;3385;48.928;10.330;2023-08-07T04:38:00;9.40;99.90
6696;DHT22;3385;48.928;10.330;2023-08-07T04:40:25;9.30;99.90
6696;DHT22;3385;48.928;10.330;2023-08-07T04:47:43;9.40;99.90
6696;DHT22;3385;48.928;10.330;2023-08-07T04:57:28;9.40;99.90
6696;DHT22;3385;48.928;10.330;2023-08-07T05:09:38;9.40;99.90
6696;DHT22;3385;48.928;10.330;2023-08-07T05:14:30;9.30;99.90
6696;DHT22;3385;48.928;10.330;2023-08-07T05:21:48;9.40;99.90
6696;DHT22;3385;48.928;10.330;2023-08-07T05:34:01;9.50;99.90
6696;DHT22;3385;48.928;10.330;2023-08-07T05:36:27;9.70;99.90
6696;DHT22;3385;48.928;10.330;2023-08-07T05:38:53;9.40;99.90
6696;DHT22;3385;48.928;10.330;2023-08-07T05:41:19;9.50;99.90
6696;DHT22;3385;48.928;10.330;2023-08-07T05:48:38;9.60;99.90
6696;DHT22;3385;48.928;10.330;2023-08-07T05:51:03;9.60;99.90
6696;DHT22;3385;48.928;10.330;2023-08-07T06:03:14;9.80;99.90
6696;DHT22;3385;48.928;10.330;2023-08-07T06:13:00;9.60;99.90
6696;DHT22;3385;48.928;10.330;2023-08-07T06:15:26;9.60;99.90
6696;DHT22;3385;48.928;10.330;2023-08-07T06:20:18;9.60;99.90
6696;DHT22;3385;48.928;10.330;2023-08-07T06:25:12;9.90;99.90
6696;DHT22;3385;48.928;10.330;2023-08-07T06:32:31;9.90;99.90
6696;DHT22;3385;48.928;10.330;2023-08-07T06:37:23;10.10;99.90
6696;DHT22;3385;48.928;10.330;2023-08-07T06:42:14;9.70;99.90
6696;DHT22;3385;48.928;10.330;2023-08-07T06:54:25;9.80;99.90
6696;DHT22;3385;48.928;10.330;2023-08-07T06:56:50;10.00;99.90
6696;DHT22;3385;48.928;10.330;2023-08-07T06:59:16;9.80;99.90
6696;DHT22;3385;48.928;10.330;2023-08-07T07:04:08;9.90;99.90
6696;DHT22;3385;48.928;10.330;2023-08-07T07:21:13;10.10;99.90
6696;DHT22;3385;48.928;10.330;2023-08-07T07:26:05;10.30;99.90
6696;DHT22;3385;48.928;10.330;2023-08-07T07:33:23;10.40;99.90
6696;DHT22;3385;48.928;10.330;2023-08-07T07:43:08;10.80;99.90
6696;DHT22;3385;48.928;10.330;2023-08-07T07:45:34;10.50;99.90
6696;DHT22;3385;48.928;10.330;2023-08-07T07:55:21;10.90;99.90
6696;DHT22;3385;48.928;10.330;2023-08-07T07:57:47;10.60;99.90
6696;DHT22;3385;48.928;10.330;2023-08-07T08:00:13;10.90;99.90
6696;DHT22;3385;48.928;10.330;2023-08-07T08:02:42;10.80;99.90
6696;DHT22;3385;48.928;10.330;2023-08-07T08:05:08;10.70;99.90
6696;DHT22;3385;48.928;10.330;2023-08-07T08:10:02;11.40;99.90
6696;DHT22;3385;48.928;10.330;2023-08-07T08:12:30;11.20;99.90
6696;DHT22;3385;48.928;10.330;2023-08-07T08:14:56;11.00;99.90
6696;DHT22;3385;48.928;10.330;2023-08-07T08:22:15;11.00;99.90
6696;DHT22;3385;48.928;10.330;2023-08-07T08:27:07;11.10;99.90
6696;DHT22;3385;48.928;10.330;2023-08-07T08:39:18;11.20;99.90
6696;DHT22;3385;48.928;10.330;2023-08-07T08:41:46;11.60;99.90
6696;DHT22;3385;48.928;10.330;2023-08-07T08:44:14;11.50;99.90
6696;DHT22;3385;48.928;10.330;2023-08-07T08:49:09;11.90;99.90
6696;DHT22;3385;48.928;10.330;2023-08-07T08:56:30;11.80;99.90
6696;DHT22;3385;48.928;10.330;2023-08-07T09:08:45;11.40;99.90
6696;DHT22;3385;48.928;10.330;2023-08-07T09:11:12;11.40;99.90
6696;DHT22;3385;48.928;10.330;2023-08-07T09:13:40;11.70;99.90
6696;DHT22;3385;48.928;10.330;2023-08-07T09:28:26;12.30;99.90
6696;DHT22;3385;48.928;10.330;2023-08-07T09:33:26;12.50;99.90
6696;DHT22;3385;48.928;10.330;2023-08-07T09:35:53;12.60;99.90
6696;DHT22;3385;48.928;10.330;2023-08-07T09:38:22;12.20;99.90
6696;DHT22;3385;48.928;10.330;2023-08-07T09:45:48;13.30;99.90
6696;DHT22;3385;48.928;10.330;2023-08-07T09:53:14;12.80;99.90
6696;DHT22;3385;48.928;10.330;2023-08-07T09:58:08;12.70;99.90
6696;DHT22;3385;48.928;10.330;2023-08-07T10:00:37;12.70;99.90
6696;DHT22;3385;48.928;10.330;2023-08-07T10:03:04;13.00;99.90
6696;DHT22;3385;48.928;10.330;2023-08-07T10:05:30;12.70;99.90
6696;DHT22;3385;48.928;10.330;2023-08-07T10:10:23;13.60;99.90
6696;DHT22;3385;48.928;10.330;2023-08-07T10:12:51;13.40;99.90
6696;DHT22;3385;48.928;10.330;2023-08-07T10:15:18;13.40;99.90
6696;DHT22;3385;48.928;10.330;2023-08-07T10:17:44;14.00;99.90
6696;DHT22;3385;48.928;10.330;2023-08-07T10:22:38;14.20;99.90
6696;DHT22;3385;48.928;10.330;2023-08-07T10:25:06;14.30;99.90
6696;DHT22;3385;48.928;10.330;2023-08-07T10:27:36;14.70;99.90
6696;DHT22;3385;48.928;10.330;2023-08-07T10:30:05;14.90;99.90
6696;DHT22;3385;48.928;10.330;2023-08-07T10:32:33;14.80;99.90
6696;DHT22;3385;48.928;10.330;2023-08-07T10:35:03;15.50;99.90
6696;DHT22;3385;48.928;10.330;2023-08-07T10:37:43;15.40;99.90
6696;DHT22;3385;48.928;10.330;2023-08-07T10:40:12;15.10;99.90
6696;DHT22;3385;48.928;10.330;2023-08-07T10:45:34;15.70;99.90
6696;DHT22;3385;48.928;10.330;2023-08-07T10:48:13;15.50;99.90
6696;DHT22;3385;48.928;10.330;2023-08-07T10:53:36;15.40;99.90
6696;DHT22;3385;48.928;10.330;2023-08-07T10:56:07;15.70;99.90
6696;DHT22;3385;48.928;10.330;2023-08-07T10:58:37;15.60;99.90
6696;DHT22;3385;48.928;10.330;2023-08-07T11:03:46;14.40;99.90
6696;DHT22;3385;48.928;10.330;2023-08-07T11:06:16;15.20;99.90
6696;DHT22;3385;48.928;10.330;2023-08-07T11:08:42;15.30;99.90
6696;DHT22;3385;48.928;10.330;2023-08-07T11:11:08;15.20;99.90
6696;DHT22;3385;48.928;10.330;2023-08-07T11:13:34;15.30;99.90
6696;DHT22;3385;48.928;10.330;2023-08-07T11:16:01;15.90;99.90
6696;DHT22;3385;48.928;10.330;2023-08-07T11:18:27;15.80;99.90
6696;DHT22;3385;48.928;10.330;2023-08-07T11:23:25;15.70;99.90
6696;DHT22;3385;48.928;10.330;2023-08-07T11:25:52;15.70;99.90
6696;DHT22;3385;48.928;10.330;2023-08-07T11:28:19;16.00;99.90
6696;DHT22;3385;48.928;10.330;2023-08-07T11:30:48;16.60;99.90
6696;DHT22;3385;48.928;10.330;2023-08-07T11:33:14;16.50;99.90
6696;DHT22;3385;48.928;10.330;2023-08-07T11:35:43;17.00;99.90
6696;DHT22;3385;48.928;10.330;2023-08-07T11:38:09;17.10;99.90
6696;DHT22;3385;48.928;10.330;2023-08-07T11:40:35;17.10;99.90
6696;DHT22;3385;48.928;10.330;2023-08-07T11:43:01;17.00;99.90
6696;DHT22;3385;48.928;10.330;2023-08-07T11:45:27;17.00;99.90
6696;DHT22;3385;48.928;10.330;2023-08-07T11:47:53;17.20;99.90
6696;DHT22;3385;48.928;10.330;2023-08-07T11:50:25;17.40;99.90
6696;DHT22;3385;48.928;10.330;2023-08-07T11:52:53;17.40;99.90
6696;DHT22;3385;48.928;10.330;2023-08-07T11:55:19;17.30;99.90
6696;DHT22;3385;48.928;10.330;2023-08-07T11:57:47;17.30;99.90
6696;DHT22;3385;48.928;10.330;2023-08-07T12:00:13;17.50;99.90
6696;DHT22;3385;48.928;10.330;2023-08-07T12:02:43;17.50;99.90
6696;DHT22;3385;48.928;10.330;2023-08-07T12:05:11;17.20;99.90
6696;DHT22;3385;48.928;10.330;2023-08-07T12:07:37;16.40;99.90
6696;DHT22;3385;48.928;10.330;2023-08-07T12:10:06;16.20;99.90
6696;DHT22;3385;48.928;10.330;2023-08-07T12:12:34;16.00;99.90
6696;DHT22;3385;48.928;10.330;2023-08-07T12:15:01;15.70;99.90
6696;DHT22;3385;48.928;10.330;2023-08-07T12:17:29;15.30;99.90
6696;DHT22;3385;48.928;10.330;2023-08-07T12:19:57;15.30;99.90
6696;DHT22;3385;48.928;10.330;2023-08-07T12:22:23;14.60;99.90
6696;DHT22;3385;48.928;10.330;2023-08-07T12:24:49;14.20;99.90
6696;DHT22;3385;48.928;10.330;2023-08-07T12:27:14;14.40;99.90
6696;DHT22;3385;48.928;10.330;2023-08-07T12:29:40;14.60;99.90
6696;DHT22;3385;48.928;10.330;2023-08-07T12:32:06;14.40;99.90
6696;DHT22;3385;48.928;10.330;2023-08-07T12:34:32;14.60;99.90
6696;DHT22;3385;48.928;10.330;2023-08-07T12:39:24;15.20;99.90
6696;DHT22;3385;48.928;10.330;2023-08-07T12:41:50;15.20;99.90
6696;DHT22;3385;48.928;10.330;2023-08-07T12:44:16;15.10;99.90
6696;DHT22;3385;48.928;10.330;2023-08-07T12:46:41;14.80;99.90
6696;DHT22;3385;48.928;10.330;2023-08-07T12:49:09;14.80;99.90
6696;DHT22;3385;48.928;10.330;2023-08-07T12:51:35;14.60;99.90
6696;DHT22;3385;48.928;10.330;2023-08-07T12:54:01;14.70;99.90
6696;DHT22;3385;48.928;10.330;2023-08-07T12:56:26;15.30;99.90
6696;DHT22;3385;48.928;10.330;2023-08-07T12:58:52;15.10;99.90
6696;DHT22;3385;48.928;10.330;2023-08-07T13:01:18;15.20;99.90
6696;DHT22;3385;48.928;10.330;2023-08-07T13:03:43;15.10;99.90
6696;DHT22;3385;48.928;10.330;2023-08-07T13:06:09;14.90;99.90
6696;DHT22;3385;48.928;10.330;2023-08-07T13:08:37;15.30;99.90
6696;DHT22;3385;48.928;10.330;2023-08-07T13:11:03;16.60;99.90
6696;DHT22;3385;48.928;10.330;2023-08-07T13:13:29;16.90;99.90
6696;DHT22;3385;48.928;10.330;2023-08-07T13:15:56;17.30;99.90
6696;DHT22;3385;48.928;10.330;2023-08-07T13:18:22;17.10;99.90
6696;DHT22;3385;48.928;10.330;2023-08-07T13:20:48;17.30;99.90
6696;DHT22;3385;48.928;10.330;2023-08-07T13:23:14;17.40;99.90
6696;DHT22;3385;48.928;10.330;2023-08-07T13:25:40;16.90;99.90
6696;DHT22;3385;48.928;10.330;2023-08-07T13:28:06;16.10;99.90
6696;DHT22;3385;48.928;10.330;2023-08-07T13:30:35;15.70;99.90
6696;DHT22;3385;48.928;10.330;2023-08-07T13:33:01;15.00;99.90
6696;DHT22;3385;48.928;10.330;2023-08-07T13:35:27;14.80;99.90
6696;DHT22;3385;48.928;10.330;2023-08-07T13:37:52;14.60;99.90
6696;DHT22;3385;48.928;10.330;2023-08-07T13:40:18;14.70;99.90
6696;DHT22;3385;48.928;10.330;2023-08-07T13:42:46;14.70;99.90
6696;DHT22;3385;48.928;10.330;2023-08-07T13:45:12;14.30;99.90
6696;DHT22;3385;48.928;10.330;2023-08-07T13:47:39;14.40;99.90
6696;DHT22;3385;48.928;10.330;2023-08-07T13:50:05;14.20;99.90
6696;DHT22;3385;48.928;10.330;2023-08-07T13:52:33;14.60;99.90
6696;DHT22;3385;48.928;10.330;2023-08-07T13:54:59;14.50;99.90
6696;DHT22;3385;48.928;10.330;2023-08-07T13:57:25;14.80;99.90
6696;DHT22;3385;48.928;10.330;2023-08-07T13:59:51;15.30;99.90
6696;DHT22;3385;48.928;10.330;2023-08-07T14:02:16;15.70;99.90
6696;DHT22;3385;48.928;10.330;2023-08-07T14:04:42;16.60;99.90
6696;DHT22;3385;48.928;10.330;2023-08-07T14:07:11;17.30;99.90
6696;DHT22;3385;48.928;10.330;2023-08-07T14:09:36;18.00;99.90
6696;DHT22;3385;48.928;10.330;2023-08-07T14:12:03;18.50;99.90
6696;DHT22;3385;48.928;10.330;2023-08-07T14:14:29;18.80;99.90
6696;DHT22;3385;48.928;10.330;2023-08-07T14:16:55;19.00;99.90
6696;DHT22;3385;48.928;10.330;2023-08-07T14:19:23;18.70;99.90
6696;DHT22;3385;48.928;10.330;2023-08-07T14:21:50;18.00;99.90
6696;DHT22;3385;48.928;10.330;2023-08-07T14:24:16;17.70;99.90
6696;DHT22;3385;48.928;10.330;2023-08-07T14:26:44;17.50;99.90
6696;DHT22;3385;48.928;10.330;2023-08-07T14:29:10;17.00;99.90
6696;DHT22;3385;48.928;10.330;2023-08-07T14:31:35;16.40;99.90
6696;DHT22;3385;48.928;10.330;2023-08-07T14:34:01;16.20;99.90
6696;DHT22;3385;48.928;10.330;2023-08-07T14:36:27;16.40;99.90
6696;DHT22;3385;48.928;10.330;2023-08-07T14:38:52;16.40;99.90
6696;DHT22;3385;48.928;10.330;2023-08-07T14:41:18;16.40;99.90
6696;DHT22;3385;48.928;10.330;2023-08-07T14:43:44;16.40;99.90
6696;DHT22;3385;48.928;10.330;2023-08-07T14:46:11;16.80;99.90
6696;DHT22;3385;48.928;10.330;2023-08-07T14:48:36;16.80;99.90
6696;DHT22;3385;48.928;10.330;2023-08-07T14:51:02;16.60;99.90
6696;DHT22;3385;48.928;10.330;2023-08-07T14:53:28;16.70;99.90
6696;DHT22;3385;48.928;10.330;2023-08-07T14:55:56;17.20;99.90
6696;DHT22;3385;48.928;10.330;2023-08-07T14:58:22;17.10;99.90
6696;DHT22;3385;48.928;10.330;2023-08-07T15:00:48;18.10;99.90
6696;DHT22;3385;48.928;10.330;2023-08-07T15:03:15;18.10;99.90
6696;DHT22;3385;48.928;10.330;2023-08-07T15:05:41;18.70;99.90
6696;DHT22;3385;48.928;10.330;2023-08-07T15:08:07;18.70;99.90
6696;DHT22;3385;48.928;10.330;2023-08-07T15:10:32;19.30;99.90
6696;DHT22;3385;48.928;10.330;2023-08-07T15:12:59;19.50;99.90
6696;DHT22;3385;48.928;10.330;2023-08-07T15:15:25;20.00;99.90
6696;DHT22;3385;48.928;10.330;2023-08-07T15:17:51;20.40;99.90
6696;DHT22;3385;48.928;10.330;2023-08-07T15:20:18;20.20;99.90
6696;DHT22;3385;48.928;10.330;2023-08-07T15:22:46;20.80;99.90
6696;DHT22;3385;48.928;10.330;2023-08-07T15:25:12;21.50;99.90
6696;DHT22;3385;48.928;10.330;2023-08-07T15:27:38;21.80;99.90
6696;DHT22;3385;48.928;10.330;2023-08-07T15:30:04;22.60;99.90
6696;DHT22;3385;48.928;10.330;2023-08-07T15:32:30;23.00;99.90
6696;DHT22;3385;48.928;10.330;2023-08-07T15:34:55;22.80;99.90
6696;DHT22;3385;48.928;10.330;2023-08-07T15:37:21;22.90;99.90
6696;DHT22;3385;48.928;10.330;2023-08-07T15:39:47;22.10;99.90
6696;DHT22;3385;48.928;10.330;2023-08-07T15:42:12;22.00;99.90
6696;DHT22;3385;48.928;10.330;2023-08-07T15:44:38;21.40;99.90
6696;DHT22;3385;48.928;10.330;2023-08-07T15:47:04;20.00;99.90
6696;DHT22;3385;48.928;10.330;2023-08-07T15:49:30;18.90;99.90
6696;DHT22;3385;48.928;10.330;2023-08-07T15:51:56;18.00;99.90
6696;DHT22;3385;48.928;10.330;2023-08-07T15:54:22;17.30;99.90
6696;DHT22;3385;48.928;10.330;2023-08-07T15:56:47;16.50;99.90
6696;DHT22;3385;48.928;10.330;2023-08-07T15:59:13;16.40;99.90
6696;DHT22;3385;48.928;10.330;2023-08-07T16:01:39;15.90;99.90
6696;DHT22;3385;48.928;10.330;2023-08-07T16:04:05;15.70;99.90
6696;DHT22;3385;48.928;10.330;2023-08-07T16:06:30;15.10;99.90
6696;DHT22;3385;48.928;10.330;2023-08-07T16:08:56;15.00;99.90
6696;DHT22;3385;48.928;10.330;2023-08-07T16:11:23;15.20;99.90
6696;DHT22;3385;48.928;10.330;2023-08-07T16:13:49;15.50;99.90
6696;DHT22;3385;48.928;10.330;2023-08-07T16:16:15;15.20;99.90
6696;DHT22;3385;48.928;10.330;2023-08-07T16:18:40;15.50;99.90
6696;DHT22;3385;48.928;10.330;2023-08-07T16:21:07;16.00;99.90
6696;DHT22;3385;48.928;10.330;2023-08-07T16:23:33;15.80;99.90
6696;DHT22;3385;48.928;10.330;2023-08-07T16:25:59;16.00;99.90
6696;DHT22;3385;48.928;10.330;2023-08-07T16:28:25;16.50;99.90
6696;DHT22;3385;48.928;10.330;2023-08-07T16:30:51;16.20;99.90
6696;DHT22;3385;48.928;10.330;2023-08-07T16:33:16;16.20;99.90
6696;DHT22;3385;48.928;10.330;2023-08-07T16:35:42;16.50;99.90
6696;DHT22;3385;48.928;10.330;2023-08-07T16:38:08;16.40;99.90
6696;DHT22;3385;48.928;10.330;2023-08-07T16:40:34;16.30;99.90
6696;DHT22;3385;48.928;10.330;2023-08-07T16:43:03;16.40;99.90
6696;DHT22;3385;48.928;10.330;2023-08-07T16:45:31;16.00;99.90
6696;DHT22;3385;48.928;10.330;2023-08-07T16:47:57;16.30;99.90
6696;DHT22;3385;48.928;10.330;2023-08-07T16:50:23;17.10;99.90
6696;DHT22;3385;48.928;10.330;2023-08-07T16:52:52;18.30;99.90
6696;DHT22;3385;48.928;10.330;2023-08-07T16:55:18;19.40;99.90
6696;DHT22;3385;48.928;10.330;2023-08-07T16:57:44;20.10;99.90
6696;DHT22;3385;48.928;10.330;2023-08-07T17:00:10;20.60;99.90
6696;DHT22;3385;48.928;10.330;2023-08-07T17:02:36;20.70;99.90
6696;DHT22;3385;48.928;10.330;2023-08-07T17:05:02;20.90;99.90
6696;DHT22;3385;48.928;10.330;2023-08-07T17:07:29;20.40;99.90
6696;DHT22;3385;48.928;10.330;2023-08-07T17:09:54;19.60;99.90
6696;DHT22;3385;48.928;10.330;2023-08-07T17:12:20;19.00;99.90
6696;DHT22;3385;48.928;10.330;2023-08-07T17:14:46;19.00;99.90
6696;DHT22;3385;48.928;10.330;2023-08-07T17:17:12;19.30;99.90
6696;DHT22;3385;48.928;10.330;2023-08-07T17:19:38;18.90;99.90
6696;DHT22;3385;48.928;10.330;2023-08-07T17:22:04;18.30;99.90
6696;DHT22;3385;48.928;10.330;2023-08-07T17:24:31;18.10;99.90
6696;DHT22;3385;48.928;10.330;2023-08-07T17:26:57;16.90;99.90
6696;DHT22;3385;48.928;10.330;2023-08-07T17:29:23;16.30;99.90
6696;DHT22;3385;48.928;10.330;2023-08-07T17:31:48;15.90;99.90
6696;DHT22;3385;48.928;10.330;2023-08-07T17:34:14;15.20;99.90
6696;DHT22;3385;48.928;10.330;2023-08-07T17:36:41;15.10;99.90
6696;DHT22;3385;48.928;10.330;2023-08-07T17:39:07;14.90;99.90
6696;DHT22;3385;48.928;10.330;2023-08-07T17:41:33;14.70;99.90
6696;DHT22;3385;48.928;10.330;2023-08-07T17:43:59;14.60;99.90
6696;DHT22;3385;48.928;10.330;2023-08-07T17:46:24;14.70;99.90
6696;DHT22;3385;48.928;10.330;2023-08-07T17:48:50;15.20;99.90
6696;DHT22;3385;48.928;10.330;2023-08-07T17:51:16;16.30;99.90
6696;DHT22;3385;48.928;10.330;2023-08-07T17:53:41;16.80;99.90
6696;DHT22;3385;48.928;10.330;2023-08-07T17:56:07;17.20;99.90
6696;DHT22;3385;48.928;10.330;2023-08-07T17:58:33;16.80;99.90
6696;DHT22;3385;48.928;10.330;2023-08-07T18:00:59;17.30;99.90
6696;DHT22;3385;48.928;10.330;2023-08-07T18:03:25;17.40;99.90
6696;DHT22;3385;48.928;10.330;2023-08-07T18:05:50;17.20;99.90
6696;DHT22;3385;48.928;10.330;2023-08-07T18:08:16;16.70;99.90
6696;DHT22;3385;48.928;10.330;2023-08-07T18:10:42;15.80;99.90
6696;DHT22;3385;48.928;10.330;2023-08-07T18:13:07;15.40;99.90
6696;DHT22;3385;48.928;10.330;2023-08-07T18:15:33;15.20;99.90
6696;DHT22;3385;48.928;10.330;2023-08-07T18:17:59;14.60;99.90
6696;DHT22;3385;48.928;10.330;2023-08-07T18:20:25;14.80;99.90
6696;DHT22;3385;48.928;10.330;2023-08-07T18:22:50;14.40;99.90
6696;DHT22;3385;48.928;10.330;2023-08-07T18:25:17;14.30;99.90
6696;DHT22;3385;48.928;10.330;2023-08-07T18:27:42;14.20;99.90
6696;DHT22;3385;48.928;10.330;2023-08-07T18:30:08;13.60;99.90
6696;DHT22;3385;48.928;10.330;2023-08-07T18:32:36;13.60;99.90
6696;DHT22;3385;48.928;10.330;2023-08-07T18:35:04;13.60;99.90
6696;DHT22;3385;48.928;10.330;2023-08-07T18:37:29;13.10;99.90
6696;DHT22;3385;48.928;10.330;2023-08-07T18:39:56;13.50;99.90
6696;DHT22;3385;48.928;10.330;2023-08-07T18:42:21;13.10;99.90
6696;DHT22;3385;48.928;10.330;2023-08-07T18:44:47;13.00;99.90
6696;DHT22;3385;48.928;10.330;2023-08-07T18:47:13;13.10;99.90
6696;DHT22;3385;48.928;10.330;2023-08-07T18:49:38;12.90;99.90
6696;DHT22;3385;48.928;10.330;2023-08-07T18:52:04;12.50;99.90
6696;DHT22;3385;48.928;10.330;2023-08-07T18:54:31;12.80;99.90
6696;DHT22;3385;48.928;10.330;2023-08-07T18:56:56;12.80;99.90
6696;DHT22;3385;48.928;10.330;2023-08-07T18:59:22;12.50;99.90
6696;DHT22;3385;48.928;10.330;2023-08-07T19:01:49;12.40;99.90
6696;DHT22;3385;48.928;10.330;2023-08-07T19:04:14;12.40;99.90
6696;DHT22;3385;48.928;10.330;2023-08-07T19:06:41;12.30;99.90
6696;DHT22;3385;48.928;10.330;2023-08-07T19:09:09;12.40;99.90
6696;DHT22;3385;48.928;10.330;2023-08-07T19:11:35;12.30;99.90
6696;DHT22;3385;48.928;10.330;2023-08-07T19:14:01;12.30;99.90
6696;DHT22;3385;48.928;10.330;2023-08-07T19:16:27;12.40;99.90
6696;DHT22;3385;48.928;10.330;2023-08-07T19:18:53;12.30;99.90
6696;DHT22;3385;48.928;10.330;2023-08-07T19:21:19;12.40;99.90
6696;DHT22;3385;48.928;10.330;2023-08-07T19:23:45;12.30;99.90
6696;DHT22;3385;48.928;10.330;2023-08-07T19:26:11;11.90;99.90
6696;DHT22;3385;48.928;10.330;2023-08-07T19:28:36;12.30;99.90
6696;DHT22;3385;48.928;10.330;2023-08-07T19:31:03;12.10;99.90
6696;DHT22;3385;48.928;10.330;2023-08-07T19:33:29;12.10;99.90
6696;DHT22;3385;48.928;10.330;2023-08-07T19:35:55;11.90;99.90
6696;DHT22;3385;48.928;10.330;2023-08-07T19:38:20;12.00;99.90
6696;DHT22;3385;48.928;10.330;2023-08-07T19:40:46;12.30;99.90
6696;DHT22;3385;48.928;10.330;2023-08-07T19:43:12;12.00;99.90
6696;DHT22;3385;48.928;10.330;2023-08-07T19:45:38;11.70;99.90
6696;DHT22;3385;48.928;10.330;2023-08-07T19:50:30;12.00;99.90
6696;DHT22;3385;48.928;10.330;2023-08-07T19:52:55;11.80;99.90
6696;DHT22;3385;48.928;10.330;2023-08-07T19:55:21;12.10;99.90
6696;DHT22;3385;48.928;10.330;2023-08-07T19:57:47;12.00;99.90
6696;DHT22;3385;48.928;10.330;2023-08-07T20:00:14;12.10;99.90
6696;DHT22;3385;48.928;10.330;2023-08-07T20:02:39;11.80;99.90
6696;DHT22;3385;48.928;10.330;2023-08-07T20:05:06;11.90;99.90
6696;DHT22;3385;48.928;10.330;2023-08-07T20:07:32;11.60;99.90
6696;DHT22;3385;48.928;10.330;2023-08-07T20:12:24;12.10;99.90
6696;DHT22;3385;48.928;10.330;2023-08-07T20:14:50;11.90;99.90
6696;DHT22;3385;48.928;10.330;2023-08-07T20:17:15;11.50;99.90
6696;DHT22;3385;48.928;10.330;2023-08-07T20:19:41;12.00;99.90
6696;DHT22;3385;48.928;10.330;2023-08-07T20:22:07;11.70;99.90
6696;DHT22;3385;48.928;10.330;2023-08-07T20:24:33;11.70;99.90
6696;DHT22;3385;48.928;10.330;2023-08-07T20:26:59;11.70;99.90
6696;DHT22;3385;48.928;10.330;2023-08-07T20:29:25;11.90;99.90
6696;DHT22;3385;48.928;10.330;2023-08-07T20:31:51;11.60;99.90
6696;DHT22;3385;48.928;10.330;2023-08-07T20:34:17;11.60;99.90
6696;DHT22;3385;48.928;10.330;2023-08-07T20:36:43;11.80;99.90
6696;DHT22;3385;48.928;10.330;2023-08-07T20:39:09;11.60;99.90
6696;DHT22;3385;48.928;10.330;2023-08-07T20:41:35;11.40;99.90
6696;DHT22;3385;48.928;10.330;2023-08-07T20:44:01;11.80;99.90
6696;DHT22;3385;48.928;10.330;2023-08-07T20:46:27;11.60;99.90
6696;DHT22;3385;48.928;10.330;2023-08-07T20:48:52;11.50;99.90
6696;DHT22;3385;48.928;10.330;2023-08-07T20:51:19;11.10;99.90
6696;DHT22;3385;48.928;10.330;2023-08-07T20:53:44;11.50;99.90
6696;DHT22;3385;48.928;10.330;2023-08-07T20:56:11;11.50;99.90
6696;DHT22;3385;48.928;10.330;2023-08-07T20:58:37;11.70;99.90
6696;DHT22;3385;48.928;10.330;2023-08-07T21:01:03;11.70;99.90
6696;DHT22;3385;48.928;10.330;2023-08-07T21:05:56;11.90;99.90
6696;DHT22;3385;48.928;10.330;2023-08-07T21:08:21;11.70;99.90
6696;DHT22;3385;48.928;10.330;2023-08-07T21:10:47;12.00;99.90
6696;DHT22;3385;48.928;10.330;2023-08-07T21:13:13;11.90;99.90
6696;DHT22;3385;48.928;10.330;2023-08-07T21:15:39;11.80;99.90
6696;DHT22;3385;48.928;10.330;2023-08-07T21:18:05;12.10;99.90